createdAt,value
2018-12-30T00:00:57.656Z,4.83
2018-12-30T00:03:26.713Z,4.10
2018-12-30T00:05:56.209Z,5.57
2018-12-30T00:08:25.532Z,6.00
2018-12-30T00:10:55.002Z,5.63
2018-12-30T00:13:24.713Z,4.33
2018-12-30T00:15:53.645Z,5.60
2018-12-30T00:18:22.716Z,4.83
2018-12-30T00:20:51.714Z,4.97
2018-12-30T00:23:20.910Z,5.00
2018-12-30T00:25:50.007Z,5.03
2018-12-30T00:28:18.930Z,4.70
2018-12-30T00:30:47.796Z,4.80
2018-12-30T00:33:16.897Z,5.23
2018-12-30T00:35:45.893Z,6.07
2018-12-30T00:38:14.860Z,4.67
2018-12-30T00:40:43.820Z,4.40
2018-12-30T00:43:12.798Z,5.03
2018-12-30T00:45:41.886Z,4.83
2018-12-30T00:48:10.936Z,3.83
2018-12-30T00:50:40.106Z,5.47
2018-12-30T00:53:09.401Z,4.77
2018-12-30T00:55:38.297Z,5.07
2018-12-30T00:58:07.333Z,4.67
2018-12-30T01:00:36.291Z,4.27
2018-12-30T01:03:05.648Z,4.60
2018-12-30T01:05:34.609Z,4.30
2018-12-30T01:08:03.644Z,5.40
2018-12-30T01:10:32.593Z,4.47
2018-12-30T01:13:01.624Z,4.30
2018-12-30T01:15:30.648Z,4.57
2018-12-30T01:17:59.695Z,4.47
2018-12-30T01:20:28.785Z,4.50
2018-12-30T01:22:57.736Z,4.77
2018-12-30T01:25:26.720Z,5.07
2018-12-30T01:27:55.813Z,4.77
2018-12-30T01:30:25.417Z,4.27
2018-12-30T01:32:54.432Z,3.87
2018-12-30T01:35:23.345Z,4.70
2018-12-30T01:37:52.377Z,3.87
2018-12-30T01:40:21.433Z,3.87
2018-12-30T01:42:50.466Z,4.27
2018-12-30T01:45:19.506Z,3.83
2018-12-30T01:47:48.564Z,4.00
2018-12-30T01:50:17.677Z,5.13
2018-12-30T01:52:46.680Z,4.27
2018-12-30T01:55:15.759Z,5.30
2018-12-30T01:57:44.861Z,4.97
2018-12-30T02:00:13.891Z,5.67
2018-12-30T02:02:43.027Z,5.30
2018-12-30T02:05:11.957Z,5.77
2018-12-30T02:07:40.973Z,5.17
2018-12-30T02:10:10.032Z,4.57
2018-12-30T02:12:38.952Z,4.67
2018-12-30T02:15:07.970Z,5.00
2018-12-30T02:17:37.019Z,5.10
2018-12-30T02:20:06.282Z,5.10
2018-12-30T02:22:35.376Z,4.50
2018-12-30T02:25:04.411Z,5.37
2018-12-30T02:27:33.366Z,5.37
2018-12-30T02:30:02.319Z,4.47
2018-12-30T02:32:32.452Z,5.53
2018-12-30T02:35:01.496Z,4.63
2018-12-30T02:37:30.574Z,5.07
2018-12-30T02:39:59.554Z,4.03
2018-12-30T02:42:28.501Z,4.83
2018-12-30T02:44:57.389Z,5.07
2018-12-30T02:47:26.401Z,4.47
2018-12-30T02:49:55.611Z,3.97
2018-12-30T02:52:24.464Z,4.30
2018-12-30T02:54:53.521Z,5.30
2018-12-30T02:57:22.448Z,4.63
2018-12-30T02:59:51.436Z,4.13
2018-12-30T03:02:20.457Z,4.53
2018-12-30T03:04:49.314Z,3.83
2018-12-30T03:07:18.168Z,4.87
2018-12-30T03:09:47.179Z,4.37
2018-12-30T03:12:16.093Z,3.93
2018-12-30T03:14:45.041Z,3.83
2018-12-30T03:17:13.966Z,4.97
2018-12-30T03:19:42.904Z,3.67
2018-12-30T03:22:12.506Z,3.77
2018-12-30T03:24:41.557Z,4.80
2018-12-30T03:27:10.553Z,3.77
2018-12-30T03:29:39.489Z,4.37
2018-12-30T03:32:08.523Z,4.37
2018-12-30T03:34:37.458Z,3.63
2018-12-30T03:37:06.351Z,4.20
2018-12-30T03:39:35.453Z,4.17
2018-12-30T03:42:04.481Z,4.13
2018-12-30T03:44:33.481Z,4.17
2018-12-30T03:47:02.538Z,4.03
2018-12-30T03:49:31.459Z,4.07
2018-12-30T03:52:08.052Z,5.20
2018-12-30T03:54:31.152Z,4.00
2018-12-30T03:57:00.069Z,5.27
2018-12-30T03:59:29.030Z,5.43
2018-12-30T04:01:58.013Z,4.10
2018-12-30T04:04:27.021Z,4.60
2018-12-30T04:06:55.960Z,4.40
2018-12-30T04:09:25.022Z,3.77
2018-12-30T04:11:53.953Z,4.33
2018-12-30T04:14:22.896Z,4.53
2018-12-30T04:16:51.952Z,4.30
2018-12-30T04:19:20.973Z,4.30
2018-12-30T04:21:49.878Z,3.83
2018-12-30T04:24:18.921Z,5.07
2018-12-30T04:26:47.781Z,4.43
2018-12-30T04:29:16.667Z,3.47
2018-12-30T04:31:45.632Z,3.47
2018-12-30T04:34:14.565Z,4.03
2018-12-30T04:36:43.519Z,3.40
2018-12-30T04:39:13.484Z,4.30
2018-12-30T04:41:42.474Z,4.23
2018-12-30T04:44:11.434Z,3.63
2018-12-30T04:46:40.376Z,4.50
2018-12-30T04:49:09.341Z,4.47
2018-12-30T04:51:38.273Z,3.93
2018-12-30T04:54:07.239Z,4.20
2018-12-30T04:56:36.205Z,4.50
2018-12-30T04:59:05.130Z,3.47
2018-12-30T05:01:34.108Z,3.83
2018-12-30T05:04:03.020Z,4.97
2018-12-30T05:06:31.894Z,4.63
2018-12-30T05:09:00.768Z,4.27
2018-12-30T05:11:29.616Z,3.83
2018-12-30T05:13:58.556Z,4.43
2018-12-30T05:16:27.606Z,4.43
2018-12-30T05:18:56.599Z,4.20
2018-12-30T05:21:25.648Z,4.40
2018-12-30T05:23:54.562Z,5.13
2018-12-30T05:26:23.533Z,4.97
2018-12-30T05:28:52.457Z,4.30
2018-12-30T05:31:21.636Z,4.00
2018-12-30T05:33:50.612Z,3.47
2018-12-30T05:36:19.526Z,4.57
2018-12-30T05:38:48.485Z,4.07
2018-12-30T05:41:17.381Z,4.20
2018-12-30T05:43:46.388Z,5.07
2018-12-30T05:46:15.414Z,4.57
2018-12-30T05:48:44.331Z,3.60
2018-12-30T05:51:13.252Z,4.47
2018-12-30T05:53:42.255Z,3.40
2018-12-30T05:56:11.210Z,4.87
2018-12-30T05:58:40.137Z,4.07
2018-12-30T06:01:09.200Z,4.60
2018-12-30T06:03:38.177Z,5.23
2018-12-30T06:06:07.049Z,4.97
2018-12-30T06:08:36.055Z,4.50
2018-12-30T06:11:05.312Z,4.53
2018-12-30T06:13:34.313Z,4.57
2018-12-30T06:16:03.360Z,4.13
2018-12-30T06:18:32.440Z,3.50
2018-12-30T06:21:01.405Z,4.80
2018-12-30T06:23:30.496Z,4.60
2018-12-30T06:25:59.456Z,4.20
2018-12-30T06:28:28.504Z,3.93
2018-12-30T06:30:57.520Z,5.27
2018-12-30T06:33:26.473Z,3.70
2018-12-30T06:35:55.489Z,4.80
2018-12-30T06:38:24.496Z,3.97
2018-12-30T06:40:53.565Z,5.30
2018-12-30T06:43:22.427Z,4.30
2018-12-30T06:45:51.517Z,4.40
2018-12-30T06:48:20.564Z,4.67
2018-12-30T06:50:49.588Z,4.47
2018-12-30T06:53:18.584Z,4.50
2018-12-30T06:55:47.555Z,4.77
2018-12-30T06:58:16.669Z,4.27
2018-12-30T07:00:45.532Z,5.07
2018-12-30T07:03:14.593Z,3.93
2018-12-30T07:05:43.553Z,4.63
2018-12-30T07:08:12.507Z,3.97
2018-12-30T07:10:41.538Z,4.50
2018-12-30T07:13:10.509Z,4.63
2018-12-30T07:15:39.565Z,4.37
2018-12-30T07:18:08.458Z,4.70
2018-12-30T07:20:37.470Z,3.73
2018-12-30T07:23:06.554Z,4.80
2018-12-30T07:25:35.507Z,4.53
2018-12-30T07:28:04.563Z,4.63
2018-12-30T07:30:33.610Z,4.77
2018-12-30T07:33:02.684Z,4.83
2018-12-30T07:35:31.624Z,5.43
2018-12-30T07:38:00.716Z,4.43
2018-12-30T07:40:29.773Z,4.20
2018-12-30T07:42:58.816Z,4.23
2018-12-30T07:45:28.753Z,3.97
2018-12-30T07:47:57.800Z,4.90
2018-12-30T07:50:26.831Z,4.50
2018-12-30T07:52:55.859Z,3.80
2018-12-30T07:55:24.919Z,4.53
2018-12-30T07:57:53.964Z,4.70
2018-12-30T08:00:22.890Z,4.23
2018-12-30T08:02:51.900Z,4.23
2018-12-30T08:05:22.187Z,4.40
2018-12-30T08:07:51.156Z,5.47
2018-12-30T08:10:20.200Z,5.27
2018-12-30T08:12:49.072Z,5.10
2018-12-30T08:15:18.082Z,5.13
2018-12-30T08:17:46.946Z,5.30
2018-12-30T08:20:15.821Z,5.23
2018-12-30T08:22:44.845Z,4.67
2018-12-30T08:25:13.688Z,5.73
2018-12-30T08:27:42.664Z,4.97
2018-12-30T08:30:11.756Z,4.50
2018-12-30T08:32:40.634Z,5.43
2018-12-30T08:35:09.583Z,3.77
2018-12-30T08:37:38.656Z,5.60
2018-12-30T08:40:07.864Z,4.80
2018-12-30T08:42:37.313Z,4.10
2018-12-30T08:45:06.436Z,3.87
2018-12-30T08:47:35.344Z,3.50
2018-12-30T08:50:04.614Z,3.40
2018-12-30T08:52:33.641Z,3.83
2018-12-30T08:55:02.606Z,4.07
2018-12-30T08:57:31.677Z,4.67
2018-12-30T09:00:01.852Z,3.80
2018-12-30T09:02:31.236Z,5.23
2018-12-30T09:05:00.156Z,4.13
2018-12-30T09:07:29.126Z,3.73
2018-12-30T09:09:58.071Z,5.50
2018-12-30T09:12:26.936Z,3.73
2018-12-30T09:14:55.936Z,3.80
2018-12-30T09:17:24.896Z,4.77
2018-12-30T09:19:53.982Z,4.30
2018-12-30T09:22:23.205Z,3.93
2018-12-30T09:24:52.090Z,4.03
2018-12-30T09:27:21.078Z,3.80
2018-12-30T09:29:50.472Z,4.00
2018-12-30T09:32:19.324Z,4.30
2018-12-30T09:34:48.179Z,3.83
2018-12-30T09:37:17.572Z,2.70
2018-12-30T09:39:46.557Z,3.67
2018-12-30T09:42:15.635Z,5.17
2018-12-30T09:44:44.590Z,3.73
2018-12-30T09:47:13.597Z,4.03
2018-12-30T09:49:42.555Z,3.33
2018-12-30T09:52:11.541Z,3.73
2018-12-30T09:54:40.553Z,3.43
2018-12-30T09:57:09.612Z,4.10
2018-12-30T09:59:38.670Z,3.83
2018-12-30T10:02:07.627Z,3.70
2018-12-30T10:04:36.624Z,3.30
2018-12-30T10:07:05.664Z,4.13
2018-12-30T10:09:34.684Z,3.63
2018-12-30T10:12:03.699Z,4.07
2018-12-30T10:14:32.704Z,3.57
2018-12-30T10:17:01.621Z,3.67
2018-12-30T10:19:30.478Z,3.63
2018-12-30T10:21:59.529Z,3.83
2018-12-30T10:24:28.555Z,2.97
2018-12-30T10:26:57.575Z,2.90
2018-12-30T10:29:26.540Z,4.33
2018-12-30T10:31:55.501Z,3.87
2018-12-30T10:34:24.366Z,4.17
2018-12-30T10:36:53.395Z,4.37
2018-12-30T10:39:22.348Z,4.33
2018-12-30T10:41:51.305Z,4.20
2018-12-30T10:44:20.338Z,3.40
2018-12-30T10:46:49.321Z,4.17
2018-12-30T10:49:18.205Z,3.83
2018-12-30T10:51:47.240Z,3.30
2018-12-30T10:54:16.260Z,4.20
2018-12-30T10:56:45.343Z,3.87
2018-12-30T10:59:14.410Z,4.17
2018-12-30T11:01:43.412Z,3.80
2018-12-30T11:04:15.664Z,3.67
2018-12-30T11:06:44.765Z,4.53
2018-12-30T11:09:13.764Z,3.20
2018-12-30T11:11:42.662Z,3.30
2018-12-30T11:14:11.636Z,4.20
2018-12-30T11:16:40.700Z,3.20
2018-12-30T11:19:09.705Z,4.20
2018-12-30T11:21:38.731Z,3.70
2018-12-30T11:24:08.790Z,4.57
2018-12-30T11:26:37.813Z,4.43
2018-12-30T11:29:06.845Z,3.37
2018-12-30T11:31:35.859Z,3.77
2018-12-30T11:34:04.948Z,3.80
2018-12-30T11:36:33.994Z,3.03
2018-12-30T11:39:03.475Z,3.77
2018-12-30T11:41:32.567Z,3.43
2018-12-30T11:44:01.489Z,3.53
2018-12-30T11:46:30.427Z,3.20
2018-12-30T11:49:01.313Z,3.97
2018-12-30T11:51:30.197Z,3.30
2018-12-30T11:53:59.096Z,2.60
2018-12-30T11:56:28.073Z,3.07
2018-12-30T11:58:57.065Z,2.60
2018-12-30T12:01:26.062Z,2.97
2018-12-30T12:03:55.064Z,3.67
2018-12-30T12:06:23.972Z,2.30
2018-12-30T12:08:52.956Z,2.70
2018-12-30T12:11:21.936Z,2.50
2018-12-30T12:13:50.928Z,2.77
2018-12-30T12:16:20.028Z,3.60
2018-12-30T12:18:48.925Z,2.70
2018-12-30T12:21:18.228Z,2.73
2018-12-30T12:23:47.177Z,2.73
2018-12-30T12:26:31.506Z,2.83
2018-12-30T12:29:00.952Z,3.13
2018-12-30T12:31:29.924Z,3.13
2018-12-30T12:33:58.960Z,3.17
2018-12-30T12:36:28.025Z,3.17
2018-12-30T12:38:57.024Z,3.53
2018-12-30T12:41:26.117Z,3.13
2018-12-30T12:43:55.046Z,3.00
2018-12-30T12:46:24.111Z,3.07
2018-12-30T12:48:53.177Z,2.87
2018-12-30T12:51:22.249Z,3.60
2018-12-30T12:53:51.596Z,2.97
2018-12-30T12:56:20.669Z,3.10
2018-12-30T12:58:49.675Z,3.23
2018-12-30T13:01:18.643Z,3.70
2018-12-30T13:03:47.568Z,4.13
2018-12-30T13:06:16.958Z,4.07
2018-12-30T13:08:45.876Z,3.67
2018-12-30T13:11:15.121Z,3.20
2018-12-30T13:13:44.133Z,3.47
2018-12-30T13:16:12.997Z,3.83
2018-12-30T13:18:42.305Z,3.73
2018-12-30T13:21:11.300Z,4.00
2018-12-30T13:23:40.293Z,3.53
2018-12-30T13:26:10.589Z,4.97
2018-12-30T13:28:54.496Z,2.97
2018-12-30T13:31:23.449Z,3.10
2018-12-30T13:33:52.348Z,4.07
2018-12-30T13:36:25.238Z,3.83
2018-12-30T13:38:54.224Z,4.17
2018-12-30T13:41:23.232Z,2.93
2018-12-30T13:43:52.416Z,3.40
2018-12-30T13:46:21.480Z,3.90
2018-12-30T13:48:50.528Z,3.47
2018-12-30T13:51:19.548Z,5.20
2018-12-30T13:53:48.508Z,3.53
2018-12-30T13:56:19.982Z,4.53
2018-12-30T13:58:48.960Z,3.90
2018-12-30T14:01:18.028Z,4.07
2018-12-30T14:03:46.954Z,3.47
2018-12-30T14:06:15.861Z,3.90
2018-12-30T14:08:44.926Z,3.77
2018-12-30T14:11:13.857Z,4.10
2018-12-30T14:13:42.768Z,3.77
2018-12-30T14:16:11.753Z,4.00
2018-12-30T14:18:40.679Z,4.10
2018-12-30T14:21:09.581Z,4.37
2018-12-30T14:23:38.701Z,6.03
2018-12-30T14:26:08.177Z,5.47
2018-12-30T14:28:37.053Z,5.20
2018-12-30T14:31:05.985Z,4.10
2018-12-30T14:33:34.952Z,4.07
2018-12-30T14:36:03.960Z,4.47
2018-12-30T14:38:32.846Z,5.03
2018-12-30T14:41:01.862Z,4.97
2018-12-30T14:43:30.781Z,4.90
2018-12-30T14:45:59.805Z,4.10
2018-12-30T14:48:28.829Z,4.00
2018-12-30T14:50:57.673Z,3.77
2018-12-30T14:53:26.644Z,4.37
2018-12-30T14:55:55.649Z,3.90
2018-12-30T14:58:24.668Z,4.90
2018-12-30T15:00:55.749Z,4.30
2018-12-30T15:03:24.624Z,3.83
2018-12-30T15:05:54.840Z,3.97
2018-12-30T15:08:23.876Z,3.83
2018-12-30T15:10:52.825Z,3.93
2018-12-30T15:13:21.776Z,3.73
2018-12-30T15:15:50.734Z,3.10
2018-12-30T15:18:19.821Z,3.90
2018-12-30T15:20:48.764Z,3.73
2018-12-30T15:23:17.721Z,3.73
2018-12-30T15:25:46.780Z,5.17
2018-12-30T15:28:15.852Z,5.77
2018-12-30T15:30:44.853Z,6.60
2018-12-30T15:33:19.611Z,5.87
2018-12-30T15:35:48.720Z,7.70
2018-12-30T15:38:17.712Z,6.80
2018-12-30T15:40:48.173Z,7.47
2018-12-30T15:43:17.337Z,7.40
2018-12-30T15:45:46.281Z,7.33
2018-12-30T15:48:15.201Z,7.40
2018-12-30T15:50:44.355Z,8.10
2018-12-30T15:53:13.208Z,8.40
2018-12-30T15:55:42.204Z,8.27
2018-12-30T15:58:11.277Z,9.90
2018-12-30T16:00:40.322Z,9.23
2018-12-30T16:03:09.184Z,9.93
2018-12-30T16:05:38.220Z,11.07
2018-12-30T16:08:07.264Z,11.53
2018-12-30T16:10:36.272Z,9.87
2018-12-30T16:13:05.328Z,11.60
2018-12-30T16:15:34.372Z,11.80
2018-12-30T16:18:03.372Z,12.17
2018-12-30T16:20:32.337Z,11.87
2018-12-30T16:23:01.180Z,12.40
2018-12-30T16:25:30.073Z,11.73
2018-12-30T16:27:59.113Z,11.87
2018-12-30T16:30:28.118Z,12.63
2018-12-30T16:32:57.045Z,12.57
2018-12-30T16:35:26.052Z,14.60
2018-12-30T16:37:56.070Z,14.57
2018-12-30T16:40:25.083Z,15.07
2018-12-30T16:42:54.164Z,16.07
2018-12-30T16:45:23.196Z,16.77
2018-12-30T16:47:52.310Z,16.20
2018-12-30T16:50:33.393Z,16.63
2018-12-30T16:53:02.404Z,17.37
2018-12-30T16:55:34.858Z,15.73
2018-12-30T16:58:02.112Z,15.63
2018-12-30T17:00:31.107Z,16.43
2018-12-30T17:02:59.978Z,17.83
2018-12-30T17:05:29.029Z,20.13
2018-12-30T17:08:00.677Z,19.60
2018-12-30T17:10:30.141Z,19.57
2018-12-30T17:12:59.005Z,19.20
2018-12-30T17:15:28.123Z,20.67
2018-12-30T17:17:56.964Z,19.60
2018-12-30T17:20:25.964Z,20.97
2018-12-30T17:22:54.817Z,21.27
2018-12-30T17:25:23.676Z,22.57
2018-12-30T17:27:52.672Z,22.17
2018-12-30T17:30:22.213Z,22.50
2018-12-30T17:32:51.121Z,21.57
2018-12-30T17:35:20.005Z,22.93
2018-12-30T17:37:48.918Z,24.50
2018-12-30T17:40:17.954Z,24.40
2018-12-30T17:42:46.909Z,24.73
2018-12-30T17:45:15.940Z,28.40
2018-12-30T17:47:44.864Z,27.80
2018-12-30T17:50:13.972Z,29.67
2018-12-30T17:52:42.987Z,28.47
2018-12-30T17:55:11.966Z,28.23
2018-12-30T17:57:40.919Z,28.87
2018-12-30T18:00:10.016Z,29.03
2018-12-30T18:02:39.069Z,31.37
2018-12-30T18:05:08.747Z,29.97
2018-12-30T18:07:37.821Z,33.57
2018-12-30T18:10:07.362Z,36.60
2018-12-30T18:12:36.271Z,36.60
2018-12-30T18:15:05.701Z,41.03
2018-12-30T18:17:41.404Z,39.57
2018-12-30T18:20:05.605Z,41.77
2018-12-30T18:22:34.524Z,43.37
2018-12-30T18:25:03.448Z,40.20
2018-12-30T18:27:32.417Z,42.23
2018-12-30T18:30:01.449Z,44.53
2018-12-30T18:32:30.428Z,44.47
2018-12-30T18:34:59.491Z,43.30
2018-12-30T18:37:28.409Z,45.50
2018-12-30T18:39:57.452Z,52.93
2018-12-30T18:42:26.502Z,51.03
2018-12-30T18:44:55.497Z,50.47
2018-12-30T18:47:24.457Z,51.53
2018-12-30T18:49:53.627Z,54.23
2018-12-30T18:52:22.688Z,52.07
2018-12-30T18:54:51.745Z,54.10
2018-12-30T18:57:20.713Z,52.80
2018-12-30T18:59:49.657Z,52.27
2018-12-30T19:02:18.621Z,51.50
2018-12-30T19:04:47.763Z,54.17
2018-12-30T19:07:16.789Z,50.80
2018-12-30T19:09:46.797Z,50.57
2018-12-30T19:12:15.829Z,49.63
2018-12-30T19:14:44.788Z,51.00
2018-12-30T19:17:13.737Z,48.53
2018-12-30T19:19:42.709Z,45.17
2018-12-30T19:22:11.748Z,45.23
2018-12-30T19:24:40.748Z,40.97
2018-12-30T19:27:09.837Z,41.87
2018-12-30T19:29:38.808Z,41.93
2018-12-30T19:32:07.784Z,40.90
2018-12-30T19:34:36.833Z,38.33
2018-12-30T19:37:05.878Z,41.17
2018-12-30T19:39:34.864Z,43.93
2018-12-30T19:42:04.836Z,43.83
2018-12-30T19:44:33.788Z,44.33
2018-12-30T19:47:02.817Z,44.93
2018-12-30T19:49:33.417Z,44.53
2018-12-30T19:52:02.472Z,44.90
2018-12-30T19:54:31.424Z,46.17
2018-12-30T19:57:00.500Z,50.53
2018-12-30T19:59:29.532Z,49.13
2018-12-30T20:01:58.524Z,48.73
2018-12-30T20:04:27.624Z,49.07
2018-12-30T20:06:56.648Z,47.50
2018-12-30T20:09:25.769Z,45.13
2018-12-30T20:11:54.705Z,43.70
2018-12-30T20:14:23.701Z,45.90
2018-12-30T20:16:52.668Z,43.20
2018-12-30T20:19:21.701Z,44.57
2018-12-30T20:21:50.716Z,42.90
2018-12-30T20:24:19.690Z,43.27
2018-12-30T20:26:48.700Z,43.70
2018-12-30T20:29:17.669Z,41.93
2018-12-30T20:31:46.770Z,46.83
2018-12-30T20:34:15.810Z,48.80
2018-12-30T20:36:44.838Z,48.70
2018-12-30T20:39:13.843Z,50.43
2018-12-30T20:41:42.861Z,46.90
2018-12-30T20:44:11.885Z,52.53
2018-12-30T20:46:40.976Z,53.37
2018-12-30T20:49:09.948Z,54.83
2018-12-30T20:51:38.985Z,55.27
2018-12-30T20:54:08.007Z,53.13
2018-12-30T20:56:37.895Z,55.10
2018-12-30T20:59:07.166Z,55.63
2018-12-30T21:01:36.117Z,56.87
2018-12-30T21:04:05.208Z,59.63
2018-12-30T21:06:34.151Z,57.93
2018-12-30T21:09:04.345Z,57.27
2018-12-30T21:11:33.433Z,58.10
2018-12-30T21:14:02.463Z,62.10
2018-12-30T21:16:31.429Z,57.07
2018-12-30T21:19:00.402Z,56.13
2018-12-30T21:21:29.356Z,57.97
2018-12-30T21:23:58.232Z,56.67
2018-12-30T21:26:27.228Z,57.03
2018-12-30T21:28:56.300Z,54.47
2018-12-30T21:31:25.327Z,57.37
2018-12-30T21:33:54.372Z,56.60
2018-12-30T21:36:23.420Z,56.70
2018-12-30T21:38:52.381Z,53.70
2018-12-30T21:41:21.458Z,56.17
2018-12-30T21:43:50.400Z,55.83
2018-12-30T21:46:19.741Z,59.93
2018-12-30T21:48:48.978Z,57.33
2018-12-30T21:51:17.899Z,57.83
2018-12-30T21:53:46.999Z,61.07
2018-12-30T21:56:16.249Z,61.83
2018-12-30T21:58:45.561Z,57.70
2018-12-30T22:01:14.489Z,58.97
2018-12-30T22:03:43.521Z,55.83
2018-12-30T22:06:12.538Z,53.50
2018-12-30T22:08:41.380Z,52.17
2018-12-30T22:11:10.507Z,51.50
2018-12-30T22:13:39.522Z,51.23
2018-12-30T22:16:08.422Z,53.43
2018-12-30T22:18:37.457Z,52.77
2018-12-30T22:21:06.533Z,52.17
2018-12-30T22:23:35.626Z,52.77
2018-12-30T22:26:04.597Z,51.70
2018-12-30T22:28:33.485Z,52.13
2018-12-30T22:31:02.486Z,51.00
2018-12-30T22:33:31.459Z,49.07
2018-12-30T22:36:00.455Z,50.50
2018-12-30T22:38:29.302Z,50.13
2018-12-30T22:40:58.205Z,51.50
2018-12-30T22:43:27.115Z,48.00
2018-12-30T22:45:56.081Z,49.03
2018-12-30T22:48:25.045Z,49.07
2018-12-30T22:50:54.115Z,47.40
2018-12-30T22:53:23.048Z,45.63
2018-12-30T22:55:52.038Z,50.03
2018-12-30T22:58:20.977Z,49.27
2018-12-30T23:01:04.546Z,48.03
2018-12-30T23:03:33.557Z,46.30
2018-12-30T23:06:02.544Z,46.17
2018-12-30T23:08:31.604Z,42.07
2018-12-30T23:11:00.653Z,42.17
2018-12-30T23:13:29.520Z,44.53
2018-12-30T23:15:58.578Z,43.37
2018-12-30T23:18:27.492Z,43.70
2018-12-30T23:20:56.368Z,42.90
2018-12-30T23:23:25.341Z,38.70
2018-12-30T23:25:54.371Z,42.30
2018-12-30T23:28:23.368Z,38.77
2018-12-30T23:30:52.408Z,41.47
2018-12-30T23:33:21.963Z,39.33
2018-12-30T23:35:51.121Z,42.03
2018-12-30T23:38:20.161Z,39.30
2018-12-30T23:40:49.142Z,41.13
2018-12-30T23:43:18.114Z,38.07
2018-12-30T23:45:47.019Z,38.57
2018-12-30T23:48:15.908Z,37.40
2018-12-30T23:50:44.932Z,40.23
2018-12-30T23:53:14.052Z,39.67
2018-12-30T23:55:43.100Z,38.17
2018-12-30T23:58:12.069Z,37.10
